createdAt,value
2023-03-12T00:01:52.719Z,5.29
2023-03-12T00:04:39.245Z,5.26
2023-03-12T00:07:25.056Z,5.27
2023-03-12T00:10:11.577Z,5.25
2023-03-12T00:12:57.742Z,5.26
2023-03-12T00:15:43.658Z,5.22
2023-03-12T00:18:29.223Z,5.24
2023-03-12T00:21:14.911Z,5.23
2023-03-12T00:24:00.520Z,5.23
2023-03-12T00:26:47.239Z,5.24
2023-03-12T00:29:33.053Z,5.27
2023-03-12T00:32:18.985Z,5.25
2023-03-12T00:35:05.825Z,5.28
2023-03-12T00:37:51.466Z,5.28
2023-03-12T00:40:37.296Z,5.28
2023-03-12T00:43:23.260Z,5.27
2023-03-12T00:46:09.037Z,5.27
2023-03-12T00:48:55.165Z,5.27
2023-03-12T00:51:40.957Z,5.29
2023-03-12T00:54:26.957Z,5.26
2023-03-12T00:57:12.944Z,5.29
2023-03-12T00:59:59.066Z,5.31
2023-03-12T01:02:44.884Z,5.33
2023-03-12T01:05:34.108Z,5.32
2023-03-12T01:08:21.972Z,5.36
2023-03-12T01:11:07.991Z,5.34
2023-03-12T01:13:54.799Z,5.37
2023-03-12T01:16:41.664Z,5.36
2023-03-12T01:19:27.871Z,5.33
2023-03-12T01:22:13.883Z,5.35
2023-03-12T01:24:59.654Z,5.32
2023-03-12T01:27:45.892Z,5.34
2023-03-12T01:30:33.106Z,5.38
2023-03-12T01:33:19.184Z,5.35
2023-03-12T01:36:06.271Z,5.36
2023-03-12T01:38:53.918Z,5.37
2023-03-12T01:41:40.488Z,5.37
2023-03-12T01:44:26.381Z,5.34
2023-03-12T01:47:12.524Z,5.37
2023-03-12T01:50:00.207Z,5.36
2023-03-12T01:52:46.196Z,5.32
2023-03-12T01:55:32.330Z,5.35
2023-03-12T01:58:18.729Z,5.36
2023-03-12T02:01:05.026Z,5.35
2023-03-12T02:03:53.212Z,5.33
2023-03-12T02:06:57.151Z,5.33
2023-03-12T02:09:46.692Z,5.35
2023-03-12T02:15:33.994Z,5.38
2023-03-12T02:18:21.490Z,5.43
2023-03-12T02:21:18.980Z,5.45
2023-03-12T02:24:22.622Z,5.46
2023-03-12T02:27:09.225Z,5.49
2023-03-12T02:29:55.311Z,5.49
2023-03-12T02:32:41.586Z,5.51
2023-03-12T02:35:27.548Z,5.51
2023-03-12T02:38:36.614Z,5.49
2023-03-12T02:41:28.725Z,5.45
2023-03-12T02:44:18.939Z,5.40
2023-03-12T02:47:07.757Z,5.35
2023-03-12T02:49:57.387Z,5.32
2023-03-12T02:52:42.956Z,5.32
2023-03-12T02:55:29.440Z,5.32
2023-03-12T02:58:18.242Z,5.34
2023-03-12T03:01:04.391Z,5.31
2023-03-12T03:03:50.914Z,5.37
2023-03-12T03:06:40.374Z,5.38
2023-03-12T03:09:26.301Z,5.32
2023-03-12T03:12:12.599Z,5.42
2023-03-12T03:15:00.164Z,5.41
2023-03-12T03:17:46.567Z,5.34
2023-03-12T03:20:32.574Z,5.42
2023-03-12T03:23:18.725Z,5.35
2023-03-12T03:26:04.653Z,5.39
2023-03-12T03:28:50.832Z,5.38
2023-03-12T03:31:36.631Z,5.37
2023-03-12T03:34:23.283Z,5.32
2023-03-12T03:37:09.533Z,5.33
2023-03-12T03:39:55.876Z,5.30
2023-03-12T03:42:41.807Z,5.33
2023-03-12T03:45:29.294Z,5.32
2023-03-12T03:48:15.244Z,5.34
2023-03-12T03:51:02.453Z,5.34
2023-03-12T03:53:51.026Z,5.34
2023-03-12T03:56:36.969Z,5.36
2023-03-12T03:59:24.369Z,5.35
2023-03-12T04:02:10.727Z,5.33
2023-03-12T04:04:59.145Z,5.27
2023-03-12T04:07:45.615Z,5.25
2023-03-12T04:10:32.534Z,5.20
2023-03-12T04:13:19.116Z,5.15
2023-03-12T04:16:05.350Z,5.12
2023-03-12T04:18:51.627Z,5.08
2023-03-12T04:21:39.566Z,5.11
2023-03-12T04:24:25.164Z,5.12
2023-03-12T04:27:11.210Z,5.12
2023-03-12T04:29:57.340Z,5.10
2023-03-12T04:32:43.184Z,5.05
2023-03-12T04:35:29.518Z,5.06
2023-03-12T04:38:15.604Z,5.05
2023-03-12T04:41:11.563Z,5.06
2023-03-12T04:44:02.504Z,5.07
2023-03-12T04:46:48.783Z,5.03
2023-03-12T04:49:39.471Z,5.04
2023-03-12T04:52:27.093Z,5.05
2023-03-12T04:55:13.077Z,5.05
2023-03-12T04:57:58.927Z,5.00
2023-03-12T05:00:44.825Z,4.97
2023-03-12T05:03:31.246Z,4.93
2023-03-12T05:06:17.708Z,4.93
2023-03-12T05:09:04.125Z,4.91
2023-03-12T05:11:50.427Z,4.89
2023-03-12T05:14:39.652Z,4.85
2023-03-12T05:17:26.716Z,4.90
2023-03-12T05:20:13.215Z,4.89
2023-03-12T05:22:59.087Z,4.94
2023-03-12T05:25:46.933Z,4.91
2023-03-12T05:28:33.312Z,4.89
2023-03-12T05:31:22.319Z,4.88
2023-03-12T05:34:08.286Z,4.85
2023-03-12T05:36:58.497Z,4.84
2023-03-12T05:39:46.996Z,4.82
2023-03-12T05:42:34.652Z,4.79
2023-03-12T05:45:20.937Z,4.74
2023-03-12T05:48:10.584Z,4.72
2023-03-12T05:50:56.975Z,4.72
2023-03-12T05:53:42.749Z,4.72
2023-03-12T05:56:29.135Z,4.76
2023-03-12T05:59:15.738Z,4.77
2023-03-12T06:02:02.716Z,4.77
2023-03-12T06:04:48.921Z,4.77
2023-03-12T06:07:34.657Z,4.73
2023-03-12T06:10:20.516Z,4.78
2023-03-12T06:13:07.062Z,4.80
2023-03-12T06:15:52.963Z,4.83
2023-03-12T06:18:39.765Z,4.84
2023-03-12T06:21:27.782Z,4.88
2023-03-12T06:24:14.740Z,4.91
2023-03-12T06:27:07.371Z,4.89
2023-03-12T06:29:53.329Z,4.95
2023-03-12T06:32:38.972Z,4.98
2023-03-12T06:35:24.845Z,5.03
2023-03-12T06:38:10.514Z,5.07
2023-03-12T06:41:06.181Z,5.10
2023-03-12T06:43:52.829Z,5.03
2023-03-12T06:46:39.047Z,5.11
2023-03-12T06:49:25.116Z,5.10
2023-03-12T06:52:11.443Z,5.10
2023-03-12T06:54:57.391Z,5.09
2023-03-12T06:57:44.300Z,5.10
2023-03-12T07:00:31.296Z,5.10
2023-03-12T07:03:16.991Z,5.15
2023-03-12T07:06:03.001Z,5.09
2023-03-12T07:08:49.479Z,5.00
2023-03-12T07:11:35.442Z,5.00
2023-03-12T07:14:21.637Z,4.94
2023-03-12T07:17:07.704Z,4.92
2023-03-12T07:19:53.439Z,4.89
2023-03-12T07:22:39.096Z,4.88
2023-03-12T07:25:24.812Z,4.84
2023-03-12T07:28:11.767Z,4.82
2023-03-12T07:31:02.699Z,4.85
2023-03-12T07:33:48.854Z,4.89
2023-03-12T07:36:35.107Z,4.90
2023-03-12T07:39:21.000Z,4.89
2023-03-12T07:42:07.022Z,4.93
2023-03-12T07:44:52.887Z,4.95
2023-03-12T07:47:38.917Z,4.95
2023-03-12T07:50:24.883Z,4.96
2023-03-12T07:53:11.118Z,5.01
2023-03-12T07:55:57.236Z,5.04
2023-03-12T07:58:43.630Z,5.07
2023-03-12T08:01:32.317Z,5.10
2023-03-12T08:04:18.139Z,5.08
2023-03-12T08:07:05.813Z,5.21
2023-03-12T08:09:53.050Z,5.26
2023-03-12T08:12:39.074Z,5.33
2023-03-12T08:15:25.400Z,5.42
2023-03-12T08:18:11.281Z,5.50
2023-03-12T08:20:57.160Z,5.54
2023-03-12T08:23:42.854Z,5.58
2023-03-12T08:26:29.069Z,5.67
2023-03-12T08:29:15.403Z,5.75
2023-03-12T08:32:05.322Z,5.84
2023-03-12T08:34:51.830Z,5.92
2023-03-12T08:37:37.536Z,6.03
2023-03-12T08:40:25.588Z,6.19
2023-03-12T08:43:11.606Z,6.35
2023-03-12T08:46:00.279Z,6.50
2023-03-12T08:48:46.599Z,6.63
2023-03-12T08:51:32.693Z,6.80
2023-03-12T08:54:27.676Z,6.83
2023-03-12T08:57:13.788Z,7.02
2023-03-12T08:59:59.606Z,7.14
2023-03-12T09:02:46.153Z,7.23
2023-03-12T09:05:32.822Z,7.34
2023-03-12T09:08:19.004Z,7.44
2023-03-12T09:11:05.492Z,7.62
2023-03-12T09:14:22.233Z,7.75
2023-03-12T09:16:58.199Z,7.94
2023-03-12T09:19:44.663Z,8.13
2023-03-12T09:22:30.646Z,8.27
2023-03-12T09:25:19.221Z,8.38
2023-03-12T09:28:04.866Z,8.46
2023-03-12T09:30:51.477Z,8.62
2023-03-12T09:33:38.502Z,8.81
2023-03-12T09:36:24.072Z,8.95
2023-03-12T09:39:11.375Z,9.12
2023-03-12T09:41:57.322Z,9.22
2023-03-12T09:44:45.059Z,9.37
2023-03-12T09:47:34.243Z,9.47
2023-03-12T09:50:28.893Z,9.60
2023-03-12T09:53:34.662Z,9.72
2023-03-12T09:56:22.691Z,9.80
2023-03-12T09:59:12.743Z,9.89
2023-03-12T10:02:00.561Z,10.02
2023-03-12T10:05:06.759Z,10.10
2023-03-12T10:07:58.465Z,10.18
2023-03-12T10:10:45.231Z,10.23
2023-03-12T10:13:49.382Z,10.27
2023-03-12T10:16:53.801Z,10.34
2023-03-12T10:20:23.028Z,10.47
2023-03-12T10:23:29.650Z,10.60
2023-03-12T10:26:15.610Z,10.75
2023-03-12T10:29:13.627Z,10.82
2023-03-12T10:32:04.666Z,11.11
2023-03-12T10:34:53.785Z,11.24
2023-03-12T10:37:45.996Z,11.38
2023-03-12T10:40:34.426Z,11.55
2023-03-12T10:43:20.337Z,11.66
2023-03-12T10:46:34.964Z,11.78
2023-03-12T10:49:24.002Z,11.87
2023-03-12T10:52:17.593Z,11.95
2023-03-12T10:55:21.833Z,11.95
2023-03-12T10:58:07.421Z,12.04
2023-03-12T11:01:01.754Z,12.15
2023-03-12T11:03:48.176Z,12.33
2023-03-12T11:06:34.454Z,12.49
2023-03-12T11:09:41.864Z,12.66
2023-03-12T11:12:30.959Z,12.81
2023-03-12T11:15:21.505Z,13.01
2023-03-12T11:18:19.611Z,13.27
2023-03-12T11:21:11.350Z,13.60
2023-03-12T11:23:56.989Z,13.99
2023-03-12T11:26:59.505Z,14.52
2023-03-12T11:29:49.136Z,15.34
2023-03-12T11:32:38.064Z,16.25
2023-03-12T11:35:46.897Z,17.12
2023-03-12T11:38:42.158Z,18.06
2023-03-12T11:41:40.798Z,18.87
2023-03-12T11:44:50.482Z,19.58
2023-03-12T11:47:45.534Z,20.27
2023-03-12T11:50:49.368Z,20.77
2023-03-12T11:53:44.230Z,20.91
2023-03-12T11:56:49.558Z,21.33
2023-03-12T12:00:13.553Z,21.67
2023-03-12T12:03:14.906Z,21.99
2023-03-12T12:06:25.917Z,22.28
2023-03-12T12:09:37.035Z,22.69
2023-03-12T12:12:41.212Z,22.91
2023-03-12T12:15:35.294Z,22.69
2023-03-12T12:18:43.256Z,22.43
2023-03-12T12:21:57.654Z,22.10
2023-03-12T12:25:12.999Z,21.76
2023-03-12T12:28:14.255Z,21.40
2023-03-12T12:31:23.343Z,20.98
2023-03-12T12:34:31.128Z,20.68
2023-03-12T12:37:38.658Z,20.55
2023-03-12T12:40:37.516Z,20.49
2023-03-12T12:43:30.774Z,20.45
2023-03-12T12:46:27.096Z,20.40
2023-03-12T12:49:17.428Z,20.52
2023-03-12T12:52:08.525Z,20.52
2023-03-12T12:55:17.699Z,20.53
2023-03-12T12:58:11.450Z,20.59
2023-03-12T13:01:00.143Z,20.90
2023-03-12T13:03:47.629Z,21.28
2023-03-12T13:06:56.577Z,21.46
2023-03-12T13:09:43.906Z,21.66
2023-03-12T13:12:32.732Z,21.96
2023-03-12T13:15:30.919Z,22.26
2023-03-12T13:18:26.925Z,22.66
2023-03-12T13:21:24.182Z,22.99
2023-03-12T13:24:26.524Z,23.26
2023-03-12T13:27:23.286Z,23.43
2023-03-12T13:30:28.095Z,23.33
2023-03-12T13:33:16.680Z,22.97
2023-03-12T13:36:06.847Z,22.77
2023-03-12T13:38:55.266Z,22.61
2023-03-12T13:41:50.906Z,22.26
2023-03-12T13:44:40.796Z,22.15
2023-03-12T13:47:31.950Z,22.21
2023-03-12T13:50:18.610Z,22.16
2023-03-12T13:53:08.737Z,22.01
2023-03-12T13:56:11.143Z,21.90
2023-03-12T13:59:03.486Z,21.94
2023-03-12T14:01:56.416Z,21.91
2023-03-12T14:04:42.984Z,21.99
2023-03-12T14:07:50.171Z,22.06
2023-03-12T14:11:17.743Z,22.25
2023-03-12T14:14:17.536Z,22.36
2023-03-12T14:17:05.434Z,22.46
2023-03-12T14:20:19.421Z,22.76
2023-03-12T14:23:08.425Z,22.78
2023-03-12T14:25:58.855Z,22.84
2023-03-12T14:28:45.276Z,22.94
2023-03-12T14:31:31.760Z,23.02
2023-03-12T14:34:21.205Z,23.09
2023-03-12T14:37:12.194Z,22.94
2023-03-12T14:40:21.554Z,22.75
2023-03-12T14:43:31.896Z,22.29
2023-03-12T14:46:23.433Z,21.30
2023-03-12T14:49:09.924Z,20.14
2023-03-12T14:51:56.303Z,19.09
2023-03-12T14:54:53.873Z,18.04
2023-03-12T14:57:40.166Z,16.98
2023-03-12T15:00:28.615Z,16.16
2023-03-12T15:03:16.119Z,15.28
2023-03-12T15:06:02.905Z,14.55
2023-03-12T15:08:49.125Z,13.99
2023-03-12T15:11:36.475Z,13.51
2023-03-12T15:14:23.583Z,13.10
2023-03-12T15:17:15.974Z,12.80
2023-03-12T15:20:05.613Z,12.50
2023-03-12T15:22:52.690Z,12.24
2023-03-12T15:25:38.623Z,12.01
2023-03-12T15:28:27.817Z,11.83
2023-03-12T15:31:16.226Z,11.68
2023-03-12T15:34:06.179Z,11.57
2023-03-12T15:36:54.874Z,11.49
2023-03-12T15:39:40.860Z,11.40
2023-03-12T15:42:27.652Z,11.23
2023-03-12T15:45:23.362Z,11.10
2023-03-12T15:48:36.801Z,10.97
2023-03-12T15:51:33.231Z,10.90
2023-03-12T15:54:18.776Z,10.81
2023-03-12T15:57:26.065Z,10.69
2023-03-12T16:00:14.663Z,10.61
2023-03-12T16:03:08.038Z,10.50
2023-03-12T16:05:53.982Z,10.43
2023-03-12T16:08:45.040Z,10.33
2023-03-12T16:11:32.667Z,10.25
2023-03-12T16:14:21.451Z,10.17
2023-03-12T16:17:14.539Z,10.06
2023-03-12T16:20:00.324Z,10.05
2023-03-12T16:22:47.158Z,10.02
2023-03-12T16:25:33.805Z,9.96
2023-03-12T16:28:20.634Z,9.88
2023-03-12T16:31:15.750Z,9.80
2023-03-12T16:34:02.249Z,9.73
2023-03-12T16:36:48.143Z,9.62
2023-03-12T16:39:34.036Z,9.56
2023-03-12T16:42:20.818Z,9.50
2023-03-12T16:45:10.476Z,9.48
2023-03-12T16:48:01.848Z,9.41
2023-03-12T16:50:50.144Z,9.33
2023-03-12T16:53:35.932Z,9.22
2023-03-12T16:56:24.028Z,9.17
2023-03-12T16:59:27.710Z,9.06
2023-03-12T17:02:18.662Z,9.07
2023-03-12T17:05:04.540Z,9.04
2023-03-12T17:07:50.797Z,9.04
2023-03-12T17:10:36.903Z,9.07
2023-03-12T17:13:29.975Z,9.07
2023-03-12T17:16:16.171Z,9.05
2023-03-12T17:19:02.072Z,9.04
2023-03-12T17:21:48.772Z,9.06
2023-03-12T17:24:35.930Z,9.01
2023-03-12T17:27:22.131Z,8.99
2023-03-12T17:30:09.049Z,8.90
2023-03-12T17:33:10.987Z,8.88
2023-03-12T17:35:59.158Z,8.84
2023-03-12T17:38:45.137Z,8.80
2023-03-12T17:41:32.570Z,8.72
2023-03-12T17:44:18.512Z,8.61
2023-03-12T17:47:04.510Z,8.55
2023-03-12T17:49:50.506Z,8.50
2023-03-12T17:52:36.528Z,8.42
2023-03-12T17:55:22.445Z,8.35
2023-03-12T17:58:08.315Z,8.31
2023-03-12T18:00:54.367Z,8.29
2023-03-12T18:03:40.218Z,8.24
2023-03-12T18:06:26.420Z,8.24
2023-03-12T18:09:12.276Z,8.18
2023-03-12T18:11:57.919Z,8.18
2023-03-12T18:14:43.983Z,8.12
2023-03-12T18:17:31.530Z,8.10
2023-03-12T18:20:28.751Z,8.07
2023-03-12T18:23:25.281Z,8.00
2023-03-12T18:26:11.278Z,7.97
2023-03-12T18:28:58.321Z,7.93
2023-03-12T18:31:44.258Z,7.87
2023-03-12T18:34:30.080Z,7.84
2023-03-12T18:37:16.070Z,7.77
2023-03-12T18:40:02.082Z,7.70
2023-03-12T18:42:49.253Z,7.70
2023-03-12T18:45:34.969Z,7.65
2023-03-12T18:48:21.172Z,7.58
2023-03-12T18:51:07.170Z,7.54
2023-03-12T18:53:52.881Z,7.45
2023-03-12T18:56:41.002Z,7.37
2023-03-12T18:59:27.221Z,7.15
2023-03-12T19:02:12.975Z,7.18
2023-03-12T19:04:58.780Z,7.14
2023-03-12T19:07:44.751Z,7.07
2023-03-12T19:10:30.647Z,7.05
2023-03-12T19:13:16.517Z,7.03
2023-03-12T19:16:04.181Z,7.01
2023-03-12T19:18:50.935Z,6.96
2023-03-12T19:21:36.956Z,6.94
2023-03-12T19:24:23.591Z,6.96
2023-03-12T19:27:10.586Z,6.97
2023-03-12T19:29:56.394Z,6.93
2023-03-12T19:32:44.694Z,6.92
2023-03-12T19:35:30.804Z,6.81
2023-03-12T19:38:16.493Z,6.80
2023-03-12T19:41:02.243Z,6.78
2023-03-12T19:43:48.417Z,6.69
2023-03-12T19:46:34.250Z,6.75
2023-03-12T19:49:20.456Z,6.71
2023-03-12T19:52:06.225Z,6.67
2023-03-12T19:55:03.729Z,6.69
2023-03-12T19:57:51.071Z,6.71
2023-03-12T20:00:36.980Z,6.66
2023-03-12T20:03:23.240Z,6.57
2023-03-12T20:06:10.293Z,6.60
2023-03-12T20:08:56.093Z,6.62
2023-03-12T20:11:41.817Z,6.65
2023-03-12T20:14:27.753Z,6.59
2023-03-12T20:17:15.234Z,6.60
2023-03-12T20:20:01.493Z,6.56
2023-03-12T20:22:48.836Z,6.57
2023-03-12T20:25:38.929Z,6.58
2023-03-12T20:28:24.917Z,6.57
2023-03-12T20:31:12.847Z,6.53
2023-03-12T20:33:59.077Z,6.51
2023-03-12T20:36:44.866Z,6.50
2023-03-12T20:39:30.825Z,6.51
2023-03-12T20:42:16.960Z,6.49
2023-03-12T20:45:03.037Z,6.47
2023-03-12T20:47:48.814Z,6.44
2023-03-12T20:50:37.941Z,6.41
2023-03-12T20:53:24.072Z,6.36
2023-03-12T20:56:10.479Z,6.25
2023-03-12T20:58:57.319Z,6.21
2023-03-12T21:01:43.488Z,6.08
2023-03-12T21:04:29.651Z,5.96
2023-03-12T21:07:15.486Z,5.85
2023-03-12T21:10:01.560Z,5.80
2023-03-12T21:12:47.466Z,5.78
2023-03-12T21:15:33.214Z,5.74
2023-03-12T21:18:19.286Z,5.71
2023-03-12T21:21:06.319Z,5.68
2023-03-12T21:23:52.534Z,5.63
2023-03-12T21:26:38.429Z,5.57
2023-03-12T21:29:24.459Z,5.58
2023-03-12T21:32:10.174Z,5.54
2023-03-12T21:34:55.928Z,5.50
2023-03-12T21:37:44.890Z,5.45
2023-03-12T21:40:30.639Z,5.39
2023-03-12T21:43:16.458Z,5.31
2023-03-12T21:46:19.794Z,5.23
2023-03-12T21:49:05.960Z,5.22
2023-03-12T21:51:53.160Z,5.16
2023-03-12T21:54:38.830Z,5.16
2023-03-12T21:57:28.749Z,5.06
2023-03-12T22:00:14.985Z,5.00
2023-03-12T22:03:00.877Z,5.00
2023-03-12T22:05:53.074Z,4.95
2023-03-12T22:08:39.838Z,4.86
2023-03-12T22:11:25.849Z,4.83
2023-03-12T22:14:11.479Z,4.78
2023-03-12T22:16:57.153Z,4.75
2023-03-12T22:19:44.251Z,4.71
2023-03-12T22:22:30.177Z,4.70
2023-03-12T22:25:16.963Z,4.67
2023-03-12T22:28:02.770Z,4.60
2023-03-12T22:30:48.552Z,4.56
2023-03-12T22:33:37.503Z,4.55
2023-03-12T22:36:23.800Z,4.53
2023-03-12T22:39:09.792Z,4.51
2023-03-12T22:41:57.768Z,4.48
2023-03-12T22:44:43.748Z,4.43
2023-03-12T22:47:29.577Z,4.35
2023-03-12T22:50:15.402Z,4.37
2023-03-12T22:53:02.424Z,4.36
2023-03-12T22:55:56.755Z,4.39
2023-03-12T22:58:42.512Z,4.39
2023-03-12T23:01:28.553Z,4.39
2023-03-12T23:04:14.553Z,4.41
2023-03-12T23:07:13.340Z,4.37
2023-03-12T23:09:59.969Z,4.42
2023-03-12T23:12:45.980Z,4.44
2023-03-12T23:15:40.565Z,4.41
2023-03-12T23:18:27.393Z,4.47
2023-03-12T23:21:21.913Z,4.42
2023-03-12T23:24:08.462Z,4.38
2023-03-12T23:26:55.505Z,4.30
2023-03-12T23:29:40.983Z,4.26
2023-03-12T23:32:26.989Z,4.24
2023-03-12T23:35:13.098Z,4.22
2023-03-12T23:37:59.234Z,4.21
2023-03-12T23:40:46.591Z,4.21
2023-03-12T23:43:32.825Z,4.15
2023-03-12T23:46:19.450Z,4.15
2023-03-12T23:49:06.546Z,4.11
2023-03-12T23:51:52.425Z,4.08
2023-03-12T23:54:37.993Z,3.99
2023-03-12T23:57:25.729Z,3.97
